FK-0018 weather

Public forecast

Using degrees Celsius for public forecast. Weather courtesy of forecast.io.

Closest aviation weather report (METAR) to New Island Airport

Closest report is Mount Pleasant Airport, 105.4 nm (195.1 km) E. Retrieved 2020/08/14 16:23 UTC (31 minutes ago):

EGYP 141623Z 26014KT 9999 VCSH FEW028 SCT200 03/M03 Q0999 NOSIG

Closest aviation forecast (TAF) to New Island Airport

Closest forecast is Mount Pleasant Airport, 105.4 nm (195.1 km) E. Retrieved 2020/08/14 15:44 UTC (1 hour ago):

TAF EGYP 141339Z 1415/1509 27015KT 9999 FEW030 PROB30 TEMPO 1415/1416 4000 -SHSN SCT010 BKN020 BECMG 1420/1424 36005KT